createdAt,value
2022-07-29T00:01:19.129Z,1.00
2022-07-29T00:03:49.754Z,2.10
2022-07-29T00:06:18.458Z,1.70
2022-07-29T00:08:46.631Z,1.50
2022-07-29T00:11:14.953Z,1.00
2022-07-29T00:13:45.388Z,1.00
2022-07-29T00:16:17.367Z,1.00
2022-07-29T00:18:45.522Z,1.50
2022-07-29T00:21:15.276Z,2.40
2022-07-29T00:23:43.442Z,2.90
2022-07-29T00:26:11.553Z,3.20
2022-07-29T00:28:39.706Z,3.30
2022-07-29T00:31:09.003Z,4.70
2022-07-29T00:33:37.177Z,6.30
2022-07-29T00:36:04.990Z,7.10
2022-07-29T00:38:34.551Z,7.40
2022-07-29T00:41:02.937Z,8.00
2022-07-29T00:43:31.219Z,9.00
2022-07-29T00:45:59.374Z,9.00
2022-07-29T00:48:27.502Z,10.80
2022-07-29T00:50:55.812Z,10.70
2022-07-29T00:53:24.095Z,12.30
2022-07-29T00:55:55.474Z,14.80
2022-07-29T00:58:24.503Z,14.50
2022-07-29T01:00:53.420Z,14.20
2022-07-29T01:03:21.653Z,12.70
2022-07-29T01:05:51.258Z,14.40
2022-07-29T01:08:21.339Z,14.30
2022-07-29T01:10:51.180Z,15.20
2022-07-29T01:13:21.361Z,16.90
2022-07-29T01:15:56.503Z,17.30
2022-07-29T01:18:30.854Z,16.40
2022-07-29T01:21:29.596Z,17.10
2022-07-29T01:24:17.030Z,16.30
2022-07-29T01:26:48.890Z,18.00
2022-07-29T01:29:36.189Z,18.80
2022-07-29T01:32:27.508Z,18.00
2022-07-29T01:35:00.584Z,19.40
2022-07-29T01:37:35.027Z,20.70
2022-07-29T01:40:05.478Z,23.00
2022-07-29T01:42:38.541Z,22.60
2022-07-29T01:45:14.467Z,24.00
2022-07-29T01:47:47.231Z,26.60
2022-07-29T01:50:18.876Z,27.10
2022-07-29T01:52:58.546Z,29.70
2022-07-29T01:55:30.610Z,31.50
2022-07-29T01:58:01.014Z,31.20
2022-07-29T02:00:32.340Z,29.90
2022-07-29T02:03:02.511Z,31.50
2022-07-29T02:05:34.257Z,31.80
2022-07-29T02:08:04.447Z,33.30
2022-07-29T02:10:35.302Z,36.10
2022-07-29T02:13:05.153Z,35.30
2022-07-29T02:15:36.025Z,34.60
2022-07-29T02:18:08.746Z,37.10
2022-07-29T02:20:38.148Z,39.70
2022-07-29T02:23:07.941Z,40.20
2022-07-29T02:25:37.155Z,39.70
2022-07-29T02:28:07.318Z,41.10
2022-07-29T02:30:42.097Z,42.40
2022-07-29T02:33:11.855Z,45.00
2022-07-29T02:35:42.237Z,47.80
2022-07-29T02:38:28.610Z,49.20
2022-07-29T02:40:58.790Z,49.10
2022-07-29T02:43:27.812Z,50.20
2022-07-29T02:45:58.690Z,52.70
2022-07-29T02:48:36.437Z,52.40
2022-07-29T02:51:12.764Z,53.90
2022-07-29T02:54:01.743Z,57.30
2022-07-29T02:56:35.844Z,56.40
2022-07-29T02:59:09.079Z,58.80
2022-07-29T03:01:44.861Z,63.20
2022-07-29T03:04:15.188Z,64.30
2022-07-29T03:06:45.385Z,63.70
2022-07-29T03:09:15.275Z,68.40
2022-07-29T03:11:49.452Z,73.70
2022-07-29T03:14:20.349Z,74.90
2022-07-29T03:16:51.236Z,73.20
2022-07-29T03:19:22.558Z,73.30
2022-07-29T03:21:51.161Z,75.20
2022-07-29T03:24:30.426Z,77.00
2022-07-29T03:26:59.405Z,79.00
2022-07-29T03:29:33.633Z,84.10
2022-07-29T03:32:08.471Z,86.20
2022-07-29T03:34:38.741Z,82.60
2022-07-29T03:37:07.855Z,84.20
2022-07-29T03:39:42.510Z,88.00
2022-07-29T03:42:13.949Z,87.10
2022-07-29T03:44:47.512Z,84.30
2022-07-29T03:47:19.502Z,84.80
2022-07-29T03:49:52.474Z,83.60
2022-07-29T03:52:20.704Z,84.70
2022-07-29T03:54:49.839Z,88.30
2022-07-29T03:57:20.778Z,89.90
2022-07-29T03:59:52.144Z,91.10
2022-07-29T04:02:24.438Z,92.30
2022-07-29T04:04:55.723Z,92.10
2022-07-29T04:07:23.840Z,93.40
2022-07-29T04:09:51.962Z,94.90
2022-07-29T04:12:21.923Z,96.20
2022-07-29T04:14:51.085Z,96.40
2022-07-29T04:17:19.214Z,95.70
2022-07-29T04:19:48.673Z,94.30
2022-07-29T04:22:16.723Z,93.70
2022-07-29T04:24:44.832Z,94.20
2022-07-29T04:27:12.945Z,94.10
2022-07-29T04:29:57.138Z,96.50
2022-07-29T04:32:25.956Z,97.00
2022-07-29T04:34:55.461Z,96.40
2022-07-29T04:37:23.557Z,97.50
2022-07-29T04:39:51.677Z,98.90
2022-07-29T04:42:19.742Z,97.90
2022-07-29T04:44:55.774Z,97.50
2022-07-29T04:47:24.136Z,96.30
2022-07-29T04:49:52.387Z,95.10
2022-07-29T04:52:21.874Z,95.30
2022-07-29T04:54:50.114Z,96.90
2022-07-29T04:57:18.217Z,97.90
2022-07-29T04:59:46.349Z,99.90
2022-07-29T05:02:14.540Z,99.90
2022-07-29T05:04:42.790Z,99.90
2022-07-29T05:07:10.904Z,99.90
2022-07-29T05:09:40.406Z,99.90
2022-07-29T05:12:10.630Z,99.90
2022-07-29T05:14:38.732Z,99.90
2022-07-29T05:17:06.874Z,99.90
2022-07-29T05:19:35.122Z,99.90
2022-07-29T05:22:08.041Z,99.90
2022-07-29T05:24:36.184Z,99.90
2022-07-29T05:27:06.083Z,99.90
2022-07-29T05:29:43.925Z,99.90
2022-07-29T05:32:14.112Z,99.90
2022-07-29T05:34:51.263Z,99.90
2022-07-29T05:37:20.502Z,99.90
2022-07-29T05:39:50.563Z,99.90
2022-07-29T05:42:26.219Z,99.20
2022-07-29T05:44:54.576Z,98.30
2022-07-29T05:47:22.771Z,96.60
2022-07-29T05:49:51.440Z,95.10
2022-07-29T05:52:19.739Z,95.10
2022-07-29T05:54:47.873Z,93.80
2022-07-29T05:57:19.113Z,90.00
2022-07-29T05:59:48.992Z,87.30
2022-07-29T06:02:17.914Z,86.10
2022-07-29T06:04:46.170Z,82.70
2022-07-29T06:07:14.383Z,80.40
2022-07-29T06:09:42.522Z,80.60
2022-07-29T06:12:11.301Z,78.70
2022-07-29T06:14:39.561Z,76.50
2022-07-29T06:17:09.132Z,75.00
2022-07-29T06:19:37.524Z,72.40
2022-07-29T06:22:06.178Z,69.70
2022-07-29T06:24:34.367Z,64.00
2022-07-29T06:27:02.491Z,53.50
2022-07-29T06:29:30.664Z,53.40
2022-07-29T06:31:58.789Z,51.60
2022-07-29T06:34:28.262Z,48.90
2022-07-29T06:36:56.425Z,48.50
2022-07-29T06:39:24.527Z,46.50
2022-07-29T06:41:52.760Z,46.10
2022-07-29T06:44:26.656Z,45.30
2022-07-29T06:46:55.657Z,40.40
2022-07-29T06:49:25.235Z,38.50
2022-07-29T06:51:54.991Z,37.00
2022-07-29T06:54:23.606Z,36.50
2022-07-29T06:56:51.686Z,34.60
2022-07-29T06:59:22.938Z,25.20
2022-07-29T07:01:54.366Z,27.00
2022-07-29T07:04:22.547Z,27.20
2022-07-29T07:06:50.632Z,28.40
2022-07-29T07:09:20.101Z,24.80
2022-07-29T07:11:49.711Z,20.30
2022-07-29T07:14:18.838Z,18.80
2022-07-29T07:16:47.348Z,15.60
2022-07-29T07:19:16.117Z,12.90
2022-07-29T07:21:44.233Z,10.90
2022-07-29T07:24:12.587Z,8.90
2022-07-29T07:26:42.655Z,8.00
2022-07-29T07:29:10.732Z,7.40
2022-07-29T07:31:39.081Z,3.70
2022-07-29T07:34:07.503Z,3.10
2022-07-29T07:36:35.609Z,4.10
2022-07-29T07:39:04.480Z,2.90
2022-07-29T07:41:32.780Z,1.00
2022-07-29T07:44:02.572Z,1.00
2022-07-29T07:46:30.726Z,1.00
2022-07-29T07:48:58.985Z,1.00
2022-07-29T07:51:27.877Z,1.00
2022-07-29T07:53:56.056Z,1.00
2022-07-29T07:56:25.767Z,1.00
2022-07-29T07:58:53.969Z,1.00
2022-07-29T08:01:23.972Z,1.00
2022-07-29T08:03:52.475Z,1.00
2022-07-29T08:06:20.683Z,1.00
2022-07-29T08:08:48.829Z,1.00
2022-07-29T08:11:17.013Z,1.00
2022-07-29T08:13:45.243Z,1.00
2022-07-29T08:16:13.962Z,1.00
2022-07-29T08:18:44.757Z,1.00
2022-07-29T08:21:14.927Z,1.00
2022-07-29T08:23:57.594Z,1.00
2022-07-29T08:26:27.192Z,1.00
2022-07-29T08:28:55.338Z,1.00
2022-07-29T08:31:23.553Z,1.00
2022-07-29T08:33:53.089Z,1.00
2022-07-29T08:36:22.262Z,1.00
2022-07-29T08:38:51.387Z,1.00
2022-07-29T08:41:20.143Z,1.00
2022-07-29T08:43:48.568Z,1.00
2022-07-29T08:46:17.968Z,1.00
2022-07-29T08:48:46.732Z,1.00
2022-07-29T08:51:18.034Z,1.00
2022-07-29T08:53:48.319Z,1.00
2022-07-29T08:56:18.889Z,1.00
2022-07-29T08:58:51.625Z,1.00
2022-07-29T09:01:36.049Z,1.00
2022-07-29T09:04:13.640Z,1.00
2022-07-29T09:06:46.351Z,1.00
2022-07-29T09:09:16.545Z,1.00
2022-07-29T09:11:45.178Z,1.00
2022-07-29T09:14:15.214Z,1.00
2022-07-29T09:16:53.630Z,1.00
2022-07-29T09:19:29.961Z,1.00
2022-07-29T09:22:03.316Z,1.00
2022-07-29T09:24:40.589Z,1.00
2022-07-29T09:27:12.382Z,1.00
2022-07-29T09:29:41.291Z,1.00
2022-07-29T09:32:11.939Z,1.00
2022-07-29T09:34:40.476Z,1.00
2022-07-29T09:37:10.000Z,1.00
2022-07-29T09:39:45.078Z,1.00
2022-07-29T09:42:16.751Z,1.00
2022-07-29T09:44:47.630Z,1.00
2022-07-29T09:47:16.228Z,1.00
2022-07-29T09:49:58.774Z,1.00
2022-07-29T09:52:29.558Z,1.00
2022-07-29T09:55:07.429Z,1.00
2022-07-29T09:57:35.562Z,1.00
2022-07-29T10:00:07.804Z,1.00
2022-07-29T10:02:44.355Z,1.00
2022-07-29T10:05:22.259Z,1.00
2022-07-29T10:07:54.325Z,1.00
2022-07-29T10:10:27.018Z,1.00
2022-07-29T10:12:57.487Z,1.00
2022-07-29T10:15:29.595Z,1.00
2022-07-29T10:17:58.909Z,1.00
2022-07-29T10:20:28.770Z,1.00
2022-07-29T10:22:58.554Z,1.00
2022-07-29T10:25:27.736Z,1.00
2022-07-29T10:27:56.267Z,1.00
2022-07-29T10:30:26.107Z,1.00
2022-07-29T10:33:16.220Z,1.00
2022-07-29T10:36:06.871Z,1.00
2022-07-29T10:38:47.201Z,1.00
2022-07-29T10:41:49.647Z,1.00
2022-07-29T10:44:23.270Z,1.00
2022-07-29T10:46:53.484Z,1.00
2022-07-29T10:49:25.828Z,1.00
2022-07-29T10:52:06.520Z,1.00
2022-07-29T10:54:45.891Z,1.00
2022-07-29T10:57:20.232Z,1.00
2022-07-29T10:59:53.096Z,1.00
2022-07-29T11:02:44.758Z,1.00
2022-07-29T11:05:14.738Z,1.00
2022-07-29T11:08:26.462Z,1.00
2022-07-29T11:11:37.599Z,1.00
2022-07-29T11:14:05.728Z,1.00
2022-07-29T11:17:07.154Z,1.00
2022-07-29T11:19:37.344Z,1.00
2022-07-29T11:22:10.821Z,1.00
2022-07-29T11:24:39.632Z,1.00
2022-07-29T11:27:22.932Z,1.00
2022-07-29T11:29:56.498Z,1.00
2022-07-29T11:32:29.284Z,1.00
2022-07-29T11:35:17.008Z,1.00
2022-07-29T11:37:52.794Z,1.00
2022-07-29T11:40:26.172Z,1.00
2022-07-29T11:42:55.736Z,1.00
2022-07-29T11:45:43.141Z,1.00
2022-07-29T11:48:28.406Z,1.00
2022-07-29T11:50:59.141Z,1.00
2022-07-29T11:53:28.694Z,1.00
2022-07-29T11:56:02.731Z,1.00
2022-07-29T11:58:33.582Z,1.00
2022-07-29T12:01:04.307Z,1.00
2022-07-29T12:03:36.095Z,1.00
2022-07-29T12:06:13.219Z,1.00
2022-07-29T12:08:44.147Z,1.00
2022-07-29T12:11:21.216Z,1.00
2022-07-29T12:13:52.320Z,1.00
2022-07-29T12:16:25.558Z,1.00
2022-07-29T12:18:59.454Z,1.00
2022-07-29T12:21:28.819Z,1.00
2022-07-29T12:24:05.709Z,1.00
2022-07-29T12:26:38.202Z,1.00
2022-07-29T12:29:20.121Z,1.00
2022-07-29T12:32:02.449Z,1.00
2022-07-29T12:34:31.771Z,1.00
2022-07-29T12:37:00.193Z,1.00
2022-07-29T12:39:29.067Z,1.00
2022-07-29T12:42:04.664Z,1.00
2022-07-29T12:44:48.522Z,1.00
2022-07-29T12:47:17.192Z,1.00
2022-07-29T12:49:45.588Z,1.00
2022-07-29T12:52:26.982Z,1.00
2022-07-29T12:54:55.162Z,1.00
2022-07-29T12:57:23.394Z,1.00
2022-07-29T13:00:15.047Z,1.00
2022-07-29T13:02:45.493Z,1.00
2022-07-29T13:05:14.572Z,1.00
2022-07-29T13:07:55.852Z,1.00
2022-07-29T13:10:26.866Z,1.00
2022-07-29T13:13:06.211Z,1.00
2022-07-29T13:15:36.466Z,1.00
2022-07-29T13:18:05.911Z,1.00
2022-07-29T13:20:34.535Z,1.00
2022-07-29T13:23:02.985Z,1.00
2022-07-29T13:25:32.944Z,1.00
2022-07-29T13:28:01.780Z,1.00
2022-07-29T13:30:30.225Z,1.00
2022-07-29T13:32:59.887Z,1.00
2022-07-29T13:35:30.642Z,1.00
2022-07-29T13:37:58.949Z,1.00
2022-07-29T13:40:27.323Z,1.00
2022-07-29T13:42:55.493Z,1.00
2022-07-29T13:45:23.824Z,1.00
2022-07-29T13:47:52.047Z,1.00
2022-07-29T13:50:21.691Z,1.00
2022-07-29T13:52:51.469Z,1.00
2022-07-29T13:55:19.726Z,1.00
2022-07-29T13:57:48.484Z,1.00
2022-07-29T14:00:17.286Z,1.00
2022-07-29T14:02:46.444Z,1.00
2022-07-29T14:05:14.631Z,1.00
2022-07-29T14:07:44.185Z,1.00
2022-07-29T14:10:15.149Z,1.00
2022-07-29T14:12:45.403Z,1.00
2022-07-29T14:15:13.588Z,1.00
2022-07-29T14:17:41.747Z,1.00
2022-07-29T14:20:10.695Z,1.00
2022-07-29T14:22:42.688Z,1.00
2022-07-29T14:25:15.685Z,1.00
2022-07-29T14:27:44.579Z,1.00
2022-07-29T14:30:13.494Z,1.00
2022-07-29T14:32:41.681Z,1.00
2022-07-29T14:35:11.488Z,1.00
2022-07-29T14:37:40.809Z,1.00
2022-07-29T14:40:10.144Z,1.00
2022-07-29T14:42:40.173Z,1.00
2022-07-29T14:45:10.717Z,1.00
2022-07-29T14:47:39.837Z,1.00
2022-07-29T14:50:08.821Z,1.00
2022-07-29T14:52:37.100Z,1.00
2022-07-29T14:55:05.875Z,1.00
2022-07-29T14:57:50.862Z,1.00
2022-07-29T15:00:19.532Z,1.00
2022-07-29T15:03:01.264Z,1.00
2022-07-29T15:05:30.652Z,1.00
2022-07-29T15:07:59.683Z,1.00
2022-07-29T15:10:28.197Z,1.00
2022-07-29T15:12:58.213Z,1.00
2022-07-29T15:15:26.906Z,1.00
2022-07-29T15:17:55.253Z,1.00
2022-07-29T15:20:26.119Z,1.00
2022-07-29T15:22:56.326Z,1.00
2022-07-29T15:25:24.957Z,1.00
2022-07-29T15:27:56.631Z,1.00
2022-07-29T15:30:33.534Z,1.00
2022-07-29T15:33:03.298Z,1.00
2022-07-29T15:35:42.033Z,1.00
2022-07-29T15:38:10.458Z,1.00
2022-07-29T15:40:40.073Z,1.00
2022-07-29T15:43:08.417Z,1.00
2022-07-29T15:45:40.317Z,1.00
2022-07-29T15:48:13.221Z,1.00
2022-07-29T15:50:43.209Z,1.00
2022-07-29T15:53:15.585Z,1.00
2022-07-29T15:55:44.496Z,1.00
2022-07-29T15:58:12.904Z,1.00
2022-07-29T16:00:42.549Z,1.00
2022-07-29T16:03:10.831Z,1.00
2022-07-29T16:05:39.633Z,1.00
2022-07-29T16:08:07.933Z,1.00
2022-07-29T16:10:36.186Z,1.00
2022-07-29T16:13:04.457Z,1.00
2022-07-29T16:15:32.651Z,1.00
2022-07-29T16:18:02.250Z,1.00
2022-07-29T16:20:31.338Z,1.00
2022-07-29T16:22:59.552Z,1.00
2022-07-29T16:25:57.489Z,1.00
2022-07-29T16:28:16.554Z,1.00
2022-07-29T16:30:44.754Z,1.00
2022-07-29T16:33:14.329Z,1.00
2022-07-29T16:35:43.077Z,1.00
2022-07-29T16:38:11.228Z,1.00
2022-07-29T16:40:39.686Z,1.00
2022-07-29T16:43:07.853Z,1.00
2022-07-29T16:45:45.404Z,1.00
2022-07-29T16:48:17.345Z,1.00
2022-07-29T16:50:46.980Z,1.00
2022-07-29T16:53:15.174Z,1.00
2022-07-29T16:55:43.553Z,1.00
2022-07-29T16:58:12.069Z,1.00
2022-07-29T17:00:40.624Z,1.00
2022-07-29T17:03:08.832Z,1.00
2022-07-29T17:05:52.337Z,1.00
2022-07-29T17:08:22.735Z,1.00
2022-07-29T17:10:51.075Z,1.00
2022-07-29T17:13:19.452Z,1.00
2022-07-29T17:15:47.913Z,1.00
2022-07-29T17:18:16.101Z,1.00
2022-07-29T17:20:45.566Z,1.00
2022-07-29T17:23:13.721Z,1.00
2022-07-29T17:25:41.817Z,1.00
2022-07-29T17:28:09.875Z,1.00
2022-07-29T17:30:38.143Z,1.00
2022-07-29T17:33:06.264Z,1.00
2022-07-29T17:35:51.715Z,1.00
2022-07-29T17:38:21.169Z,1.00
2022-07-29T17:40:49.227Z,1.00
2022-07-29T17:43:17.595Z,1.00
2022-07-29T17:45:49.124Z,1.00
2022-07-29T17:48:19.022Z,1.00
2022-07-29T17:50:47.624Z,1.00
2022-07-29T17:53:16.786Z,1.00
2022-07-29T17:55:48.511Z,1.00
2022-07-29T17:58:17.314Z,1.00
2022-07-29T18:00:46.576Z,1.00
2022-07-29T18:03:14.904Z,1.00
2022-07-29T18:05:43.240Z,1.00
2022-07-29T18:08:12.730Z,1.00
2022-07-29T18:10:41.297Z,1.00
2022-07-29T18:13:12.547Z,1.00
2022-07-29T18:15:40.968Z,1.00
2022-07-29T18:18:09.597Z,1.00
2022-07-29T18:20:37.770Z,1.00
2022-07-29T18:23:05.899Z,1.00
2022-07-29T18:25:34.034Z,1.00
2022-07-29T18:28:02.231Z,1.00
2022-07-29T18:30:33.746Z,1.00
2022-07-29T18:35:52.319Z,1.00
2022-07-29T18:38:36.088Z,1.00
2022-07-29T18:41:04.443Z,1.00
2022-07-29T18:43:32.630Z,1.00
2022-07-29T18:46:02.615Z,1.00
2022-07-29T18:48:32.570Z,1.00
2022-07-29T18:51:00.785Z,1.00
2022-07-29T18:53:28.975Z,1.00
2022-07-29T18:56:00.263Z,1.00
2022-07-29T18:58:28.628Z,1.00
2022-07-29T19:00:57.072Z,1.00
2022-07-29T19:03:26.564Z,1.00
2022-07-29T19:05:54.764Z,1.00
2022-07-29T19:08:22.901Z,1.00
2022-07-29T19:10:51.106Z,1.00
2022-07-29T19:13:19.229Z,1.00
2022-07-29T19:15:47.383Z,1.00
2022-07-29T19:18:15.599Z,1.00
2022-07-29T19:20:45.119Z,1.00
2022-07-29T19:23:13.284Z,1.00
2022-07-29T19:25:53.523Z,1.00
2022-07-29T19:28:22.329Z,1.00
2022-07-29T19:30:50.661Z,1.00
2022-07-29T19:33:19.119Z,1.00
2022-07-29T19:35:54.355Z,1.00
2022-07-29T19:38:23.125Z,1.00
2022-07-29T19:40:51.317Z,1.00
2022-07-29T19:43:52.093Z,1.00
2022-07-29T19:46:07.624Z,1.00
2022-07-29T19:48:35.802Z,1.00
2022-07-29T19:51:05.621Z,1.00
2022-07-29T19:53:33.826Z,1.00
2022-07-29T19:56:01.986Z,1.00
2022-07-29T19:58:31.502Z,1.00
2022-07-29T20:01:00.748Z,1.00
2022-07-29T20:03:29.597Z,1.00
2022-07-29T20:05:58.189Z,1.00
2022-07-29T20:08:27.996Z,1.00
2022-07-29T20:10:56.221Z,1.00
2022-07-29T20:13:24.344Z,1.00
2022-07-29T20:15:52.533Z,1.00
2022-07-29T20:18:20.769Z,1.00
2022-07-29T20:20:49.642Z,1.00
2022-07-29T20:23:19.293Z,1.00
2022-07-29T20:25:49.365Z,1.00
2022-07-29T20:28:17.512Z,1.00
2022-07-29T20:30:45.738Z,1.00
2022-07-29T20:33:15.863Z,1.00
2022-07-29T20:35:44.226Z,1.00
2022-07-29T20:38:16.421Z,1.00
2022-07-29T20:40:47.947Z,1.00
2022-07-29T20:43:16.066Z,1.00
2022-07-29T20:45:44.196Z,1.00
2022-07-29T20:48:13.806Z,2.80
2022-07-29T20:50:44.890Z,5.70
2022-07-29T20:53:13.519Z,7.80
2022-07-29T20:55:41.926Z,8.00
2022-07-29T20:58:11.436Z,8.70
2022-07-29T21:00:39.544Z,8.70
2022-07-29T21:03:07.767Z,11.00
2022-07-29T21:05:37.782Z,13.50
2022-07-29T21:08:06.510Z,15.90
2022-07-29T21:10:35.148Z,18.00
2022-07-29T21:13:03.334Z,18.40
2022-07-29T21:15:33.396Z,19.00
2022-07-29T21:18:02.938Z,20.10
2022-07-29T21:20:31.655Z,20.30
2022-07-29T21:23:00.375Z,20.70
2022-07-29T21:25:28.730Z,20.40
2022-07-29T21:28:14.445Z,20.50
2022-07-29T21:30:43.917Z,20.90
2022-07-29T21:33:12.169Z,24.30
2022-07-29T21:36:15.008Z,25.50
2022-07-29T21:38:28.809Z,28.40
2022-07-29T21:40:58.133Z,28.10
2022-07-29T21:43:28.480Z,31.30
2022-07-29T21:45:58.212Z,31.90
2022-07-29T21:48:27.812Z,35.00
2022-07-29T21:50:56.321Z,39.50
2022-07-29T21:53:26.735Z,42.10
2022-07-29T21:55:55.462Z,39.80
2022-07-29T21:58:24.678Z,39.00
2022-07-29T22:00:53.907Z,37.70
2022-07-29T22:03:23.740Z,39.00
2022-07-29T22:05:51.948Z,36.30
2022-07-29T22:08:21.364Z,36.70
2022-07-29T22:10:49.486Z,39.30
2022-07-29T22:13:17.682Z,38.50
2022-07-29T22:15:47.264Z,39.00
2022-07-29T22:18:19.491Z,42.50
2022-07-29T22:20:51.465Z,46.70
2022-07-29T22:23:19.861Z,48.60
2022-07-29T22:25:47.985Z,49.80
2022-07-29T22:28:16.419Z,52.50
2022-07-29T22:30:44.616Z,52.10
2022-07-29T22:33:17.949Z,52.50
2022-07-29T22:35:48.542Z,51.70
2022-07-29T22:38:19.171Z,51.90
2022-07-29T22:40:48.573Z,52.80
2022-07-29T22:43:17.019Z,52.70
2022-07-29T22:45:45.428Z,56.60
2022-07-29T22:48:13.637Z,57.40
2022-07-29T22:50:42.421Z,56.70
2022-07-29T22:53:10.767Z,58.30
2022-07-29T22:55:40.280Z,65.90
2022-07-29T22:58:08.668Z,69.40
2022-07-29T23:00:37.070Z,71.50
2022-07-29T23:03:05.261Z,71.90
2022-07-29T23:05:33.632Z,73.00
2022-07-29T23:08:01.797Z,72.10
2022-07-29T23:10:29.933Z,70.80
2022-07-29T23:12:59.318Z,68.90
2022-07-29T23:15:27.617Z,74.30
2022-07-29T23:17:55.630Z,79.20
2022-07-29T23:20:23.745Z,80.10
2022-07-29T23:22:51.748Z,86.10
2022-07-29T23:25:20.216Z,87.90
2022-07-29T23:27:48.514Z,91.10
2022-07-29T23:30:17.872Z,90.90
2022-07-29T23:32:45.921Z,90.40
2022-07-29T23:35:13.984Z,92.80
2022-07-29T23:37:42.131Z,93.50
2022-07-29T23:40:14.385Z,93.70
2022-07-29T23:42:43.536Z,95.50
2022-07-29T23:45:12.728Z,94.90
2022-07-29T23:47:42.855Z,94.20
2022-07-29T23:50:13.035Z,95.30
2022-07-29T23:52:41.824Z,97.80
2022-07-29T23:55:37.464Z,99.70
2022-07-29T23:57:58.595Z,99.10
